Time;durP1;ratioP1;P1;durP2;ratioP2;P2;SDS_P1;SDS_P2;PMS_P1;PMS_P2;Temp;Humidity;BMP_temperature;BMP_pressure;BME280_temperature;BME280_humidity;BME280_pressure;Samples;Min_cycle;Max_cycle;Signal;HPM_P1;HPM_P2
2023/04/02 00:01:37;;;;;;;0.10;0.10;;;6.00;99.90;;;;;;5007749;28;20104;-65
2023/04/02 00:04:04;;;;;;;0.10;0.10;;;5.90;99.90;;;;;;4995486;28;20085;-65
2023/04/02 00:06:32;;;;;;;0.20;0.20;;;5.90;99.90;;;;;;4994145;28;20054;-65
2023/04/02 00:09:04;;;;;;;0.10;0.10;;;5.80;99.90;;;;;;5009697;28;20068;-65
2023/04/02 00:11:39;;;;;;;0.10;0.10;;;5.80;99.90;;;;;;5009337;28;20068;-65
2023/04/02 00:14:14;;;;;;;0.10;0.10;;;5.80;99.90;;;;;;5008144;28;20485;-65
2023/04/02 00:16:40;;;;;;;0.10;0.10;;;5.80;99.90;;;;;;4994344;28;20544;-65
2023/04/02 00:19:12;;;;;;;0.10;0.10;;;5.70;99.90;;;;;;5003031;28;20110;-65
2023/04/02 00:21:40;;;;;;;0.40;0.35;;;5.70;99.90;;;;;;5005393;28;20470;-64
2023/04/02 00:24:18;;;;;;;0.52;0.52;;;5.60;99.90;;;;;;4998116;28;20394;-65
2023/04/02 00:26:46;;;;;;;0.38;0.38;;;5.60;99.90;;;;;;5008241;28;20388;-65
2023/04/02 00:29:13;;;;;;;0.20;0.20;;;5.60;99.90;;;;;;5010550;28;20045;-65
2023/04/02 00:31:45;;;;;;;0.10;0.10;;;5.60;99.90;;;;;;4999309;28;20588;-65
2023/04/02 00:34:36;;;;;;;3.10;1.27;;;5.60;99.90;;;;;;5014767;28;20057;-65
2023/04/02 00:37:03;;;;;;;0.90;0.90;;;5.60;99.90;;;;;;4990151;28;20058;-65
2023/04/02 00:39:32;;;;;;;1.48;1.05;;;5.60;99.90;;;;;;4999444;28;20038;-65
2023/04/02 00:42:04;;;;;;;0.20;0.20;;;5.60;99.90;;;;;;5007800;28;20107;-65
2023/04/02 00:44:41;;;;;;;0.43;0.43;;;5.50;99.90;;;;;;5001974;28;20046;-65
2023/04/02 00:47:19;;;;;;;0.00;0.00;;;5.50;99.90;;;;;;5001348;28;20093;-65
2023/04/02 00:49:44;;;;;;;0.77;0.77;;;5.40;99.90;;;;;;5002142;28;20054;-65
2023/04/02 00:52:17;;;;;;;0.00;0.00;;;5.40;99.90;;;;;;5006605;28;20073;-65
2023/04/02 00:55:01;;;;;;;0.20;0.20;;;5.40;99.90;;;;;;4999664;28;20482;-65
2023/04/02 00:57:27;;;;;;;0.20;0.20;;;5.40;99.90;;;;;;5007559;28;20050;-65
2023/04/02 00:59:56;;;;;;;0.10;0.10;;;5.30;99.90;;;;;;5007312;28;20087;-65
2023/04/02 01:02:26;;;;;;;0.20;0.20;;;5.30;99.90;;;;;;4998309;28;20042;-65
2023/04/02 01:05:15;;;;;;;0.00;0.00;;;5.30;99.90;;;;;;4996555;28;20042;-65
2023/04/02 01:07:50;;;;;;;0.15;0.15;;;5.30;99.90;;;;;;4995449;28;20073;-65
2023/04/02 01:10:35;;;;;;;0.00;0.00;;;5.30;99.90;;;;;;5000337;28;20129;-65
2023/04/02 01:13:40;;;;;;;0.10;0.10;;;5.20;99.90;;;;;;5009113;28;20050;-65
2023/04/02 01:16:23;;;;;;;0.30;0.30;;;5.20;99.90;;;;;;4966583;28;20058;-65
2023/04/02 01:19:18;;;;;;;0.30;0.30;;;5.20;99.90;;;;;;4999153;28;20049;-65
2023/04/02 01:21:51;;;;;;;0.13;0.13;;;5.20;99.90;;;;;;5005717;28;20457;-65
2023/04/02 01:24:17;;;;;;;0.10;0.10;;;5.20;99.90;;;;;;4995061;28;20061;-65
2023/04/02 01:26:49;;;;;;;0.10;0.10;;;5.20;99.90;;;;;;5009805;28;20046;-65
2023/04/02 01:29:17;;;;;;;0.10;0.10;;;5.10;99.90;;;;;;5007231;28;20064;-65
2023/04/02 01:31:45;;;;;;;0.10;0.10;;;5.10;99.90;;;;;;5013067;28;20046;-65
2023/04/02 01:34:13;;;;;;;0.10;0.10;;;5.10;99.90;;;;;;5015083;28;20501;-65
2023/04/02 01:36:48;;;;;;;0.13;0.13;;;5.00;99.90;;;;;;5006815;28;20576;-65
2023/04/02 01:39:22;;;;;;;0.10;0.10;;;5.00;99.90;;;;;;5007707;28;20050;-65
2023/04/02 01:42:00;;;;;;;1.05;0.90;;;5.00;99.90;;;;;;5013165;28;20049;-65
2023/04/02 01:44:31;;;;;;;4.57;0.80;;;4.90;99.90;;;;;;5003646;28;20055;-66
2023/04/02 01:46:59;;;;;;;0.10;0.10;;;5.00;99.90;;;;;;5002241;28;20135;-65
2023/04/02 01:49:26;;;;;;;0.10;0.10;;;4.90;99.90;;;;;;5003140;28;20056;-65
2023/04/02 01:51:55;;;;;;;0.10;0.10;;;4.90;99.90;;;;;;5011175;28;20393;-65
2023/04/02 01:54:22;;;;;;;0.10;0.10;;;4.90;99.90;;;;;;5001524;28;20078;-65
2023/04/02 01:56:49;;;;;;;0.10;0.10;;;4.90;99.90;;;;;;5012537;28;20125;-65
2023/04/02 01:59:19;;;;;;;0.88;0.85;;;4.90;99.90;;;;;;5003809;28;20046;-65
2023/04/02 02:01:55;;;;;;;0.10;0.10;;;4.80;99.90;;;;;;5011596;28;20050;-65
2023/04/02 02:04:21;;;;;;;0.70;0.70;;;4.80;99.90;;;;;;5004270;28;20053;-65
2023/04/02 02:06:48;;;;;;;0.00;0.00;;;4.80;99.90;;;;;;5002013;28;20493;-65
2023/04/02 02:09:21;;;;;;;0.10;0.10;;;4.70;99.90;;;;;;5011212;28;20065;-65
2023/04/02 02:11:47;;;;;;;;;;;4.70;99.90;;;;;;5006595;28;20085;-65
2023/04/02 02:14:20;;;;;;;0.10;0.10;;;4.70;99.90;;;;;;4998556;28;19972;-65
2023/04/02 02:16:47;;;;;;;0.38;0.38;;;4.70;99.90;;;;;;5012505;28;20391;-65
2023/04/02 02:19:32;;;;;;;1.27;0.25;;;4.70;99.90;;;;;;5006827;28;20046;-65
2023/04/02 02:22:11;;;;;;;0.10;0.10;;;4.60;99.90;;;;;;5000781;28;20081;-66
2023/04/02 02:24:37;;;;;;;0.32;0.32;;;4.70;99.90;;;;;;5012005;28;20042;-65
2023/04/02 02:27:07;;;;;;;0.20;0.20;;;4.60;99.90;;;;;;5021235;28;20041;-64
2023/04/02 02:29:37;;;;;;;0.50;0.50;;;4.50;99.90;;;;;;5009644;28;20069;-65
2023/04/02 02:32:05;;;;;;;0.20;0.20;;;4.60;99.90;;;;;;5002470;28;20081;-65
2023/04/02 02:34:37;;;;;;;0.20;0.20;;;4.60;99.90;;;;;;5015535;28;20382;-65
2023/04/02 02:37:15;;;;;;;0.10;0.10;;;4.50;99.90;;;;;;5002183;28;20067;-65
2023/04/02 02:39:48;;;;;;;0.10;0.10;;;4.50;99.90;;;;;;5004742;28;20577;-65
2023/04/02 02:42:41;;;;;;;0.20;0.20;;;4.50;99.90;;;;;;5012017;28;20046;-65
2023/04/02 02:45:14;;;;;;;0.15;0.15;;;4.40;99.90;;;;;;5001626;28;20046;-65
2023/04/02 02:47:42;;;;;;;0.40;0.40;;;4.50;99.90;;;;;;5003201;28;20129;-65
2023/04/02 02:50:17;;;;;;;0.10;0.10;;;4.40;99.90;;;;;;4997696;28;20049;-65
2023/04/02 02:52:46;;;;;;;0.10;0.10;;;4.40;99.90;;;;;;5010193;28;20525;-65
2023/04/02 02:55:16;;;;;;;0.10;0.10;;;4.40;99.90;;;;;;5005475;28;20052;-65
2023/04/02 02:57:47;;;;;;;0.10;0.10;;;4.40;99.90;;;;;;4999477;28;20433;-65
2023/04/02 03:00:15;;;;;;;0.10;0.10;;;4.30;99.90;;;;;;5014035;28;20069;-65
2023/04/02 03:02:42;;;;;;;0.10;0.10;;;4.30;99.90;;;;;;5020935;28;20050;-65
2023/04/02 03:05:08;;;;;;;0.10;0.10;;;4.30;99.90;;;;;;5003855;28;20113;-65
2023/04/02 03:07:36;;;;;;;0.10;0.10;;;4.30;99.90;;;;;;4999668;28;20050;-65
2023/04/02 03:10:23;;;;;;;0.10;0.10;;;4.20;99.90;;;;;;4998676;28;20129;-65
2023/04/02 03:13:13;;;;;;;0.10;0.10;;;4.30;99.90;;;;;;5009486;28;20044;-65
2023/04/02 03:15:58;;;;;;;0.10;0.10;;;4.20;99.90;;;;;;5005271;28;20053;-65
2023/04/02 03:18:38;;;;;;;0.10;0.10;;;4.20;99.90;;;;;;5007854;28;20041;-65
2023/04/02 03:21:32;;;;;;;0.10;0.10;;;4.20;99.90;;;;;;5011148;28;20088;-65
2023/04/02 03:24:08;;;;;;;0.10;0.10;;;4.20;99.90;;;;;;5011505;28;20041;-65
2023/04/02 03:26:52;;;;;;;0.10;0.10;;;4.10;99.90;;;;;;4999858;28;20120;-65
2023/04/02 03:29:25;;;;;;;0.10;0.10;;;4.10;99.90;;;;;;5008512;28;20033;-65
2023/04/02 03:31:58;;;;;;;0.10;0.10;;;4.00;99.90;;;;;;5000460;28;20112;-65
2023/04/02 03:34:32;;;;;;;0.10;0.10;;;4.00;99.90;;;;;;5001706;28;20367;-65
2023/04/02 03:37:05;;;;;;;0.10;0.10;;;4.10;99.90;;;;;;5008761;28;20135;-65
2023/04/02 03:39:40;;;;;;;0.10;0.10;;;4.10;99.90;;;;;;5005908;28;20058;-65
2023/04/02 03:42:17;;;;;;;0.10;0.10;;;4.10;99.90;;;;;;5001380;28;20046;-65
2023/04/02 03:45:03;;;;;;;0.10;0.10;;;4.00;99.90;;;;;;5002197;28;20405;-65
2023/04/02 03:47:57;;;;;;;0.10;0.10;;;4.00;99.90;;;;;;5009831;28;20054;-65
2023/04/02 03:51:01;;;;;;;0.30;0.30;;;4.00;99.90;;;;;;5002154;28;20072;-65
2023/04/02 03:53:28;;;;;;;0.10;0.10;;;4.00;99.90;;;;;;5005030;28;20045;-65
2023/04/02 03:55:55;;;;;;;0.10;0.10;;;4.00;99.90;;;;;;5010867;28;20052;-65
2023/04/02 03:58:27;;;;;;;1.70;1.52;;;4.00;99.90;;;;;;5001834;28;20052;-65
2023/04/02 04:01:03;;;;;;;0.45;0.45;;;3.90;99.90;;;;;;4999612;28;20042;-64
2023/04/02 04:03:49;;;;;;;0.10;0.10;;;3.90;99.90;;;;;;5006635;28;20045;-65
2023/04/02 04:06:27;;;;;;;0.10;0.10;;;4.00;99.90;;;;;;4993759;28;20565;-65
2023/04/02 04:09:18;;;;;;;0.10;0.10;;;3.90;99.90;;;;;;5001546;28;20508;-65
2023/04/02 04:11:48;;;;;;;0.10;0.10;;;3.90;99.90;;;;;;5001121;28;20099;-65
2023/04/02 04:14:31;;;;;;;0.10;0.10;;;3.80;99.90;;;;;;4995332;28;20395;-65
2023/04/02 04:17:08;;;;;;;0.30;0.30;;;3.80;99.90;;;;;;5005685;28;20045;-64
2023/04/02 04:19:45;;;;;;;0.10;0.10;;;3.80;99.90;;;;;;5013943;28;20049;-65
2023/04/02 04:22:14;;;;;;;0.10;0.10;;;3.80;99.90;;;;;;5001211;28;20108;-64
2023/04/02 04:24:44;;;;;;;0.10;0.10;;;3.80;99.90;;;;;;5001713;28;20041;-64
2023/04/02 04:27:21;;;;;;;0.10;0.10;;;3.70;99.90;;;;;;5004986;28;20053;-65
2023/04/02 04:30:41;;;;;;;0.10;0.10;;;3.70;99.90;;;;;;5004456;28;20046;-64
2023/04/02 04:33:24;;;;;;;0.10;0.10;;;3.70;99.90;;;;;;4973138;28;20426;-64
2023/04/02 04:35:58;;;;;;;0.10;0.10;;;3.70;99.90;;;;;;5009463;28;20056;-65
2023/04/02 04:38:37;;;;;;;0.10;0.10;;;3.70;99.90;;;;;;4998786;28;20374;-64
2023/04/02 04:41:16;;;;;;;0.10;0.10;;;3.70;99.90;;;;;;5007621;28;20050;-65
2023/04/02 04:44:14;;;;;;;0.10;0.10;;;3.70;99.90;;;;;;4999511;28;20076;-64
2023/04/02 04:46:51;;;;;;;0.10;0.10;;;3.70;99.90;;;;;;4993204;28;20093;-65
2023/04/02 04:49:44;;;;;;;0.35;0.35;;;3.70;99.90;;;;;;4996826;28;20105;-64
2023/04/02 04:52:26;;;;;;;0.10;0.10;;;3.70;99.90;;;;;;4997930;28;20054;-64
2023/04/02 04:54:52;;;;;;;0.10;0.10;;;3.70;99.90;;;;;;5000043;28;20043;-64
2023/04/02 04:57:35;;;;;;;0.10;0.10;;;3.70;99.90;;;;;;5002602;28;20092;-65
2023/04/02 05:00:32;;;;;;;0.10;0.10;;;3.70;99.90;;;;;;5010026;28;20206;-64
2023/04/02 05:03:12;;;;;;;0.10;0.10;;;3.70;99.90;;;;;;5006791;28;20444;-65
2023/04/02 05:05:39;;;;;;;0.10;0.10;;;3.70;99.90;;;;;;5014064;28;20053;-65
2023/04/02 05:08:18;;;;;;;0.10;0.10;;;3.60;99.90;;;;;;4998979;28;20093;-64
2023/04/02 05:10:47;;;;;;;0.10;0.10;;;3.60;99.90;;;;;;5008939;28;20045;-64
2023/04/02 05:13:37;;;;;;;0.10;0.10;;;3.60;99.90;;;;;;5002107;28;21414;-65
2023/04/02 05:16:25;;;;;;;0.10;0.10;;;3.60;99.90;;;;;;5001820;28;20038;-65
2023/04/02 05:19:30;;;;;;;0.10;0.10;;;3.60;99.90;;;;;;5006014;28;20095;-65
2023/04/02 05:22:19;;;;;;;0.10;0.10;;;3.60;99.90;;;;;;5009370;28;20490;-64
2023/04/02 05:24:55;;;;;;;1.45;0.80;;;3.60;99.90;;;;;;5013057;28;20050;-65
2023/04/02 05:27:28;;;;;;;0.10;0.10;;;3.70;99.90;;;;;;5012548;28;20077;-65
2023/04/02 05:30:03;;;;;;;0.30;0.30;;;3.60;99.90;;;;;;4998288;28;20050;-65
2023/04/02 05:32:36;;;;;;;0.10;0.10;;;3.70;99.90;;;;;;5007399;28;20042;-65
2023/04/02 05:35:05;;;;;;;0.10;0.10;;;3.60;99.90;;;;;;5011825;28;20477;-65
2023/04/02 05:37:31;;;;;;;0.10;0.10;;;3.70;99.90;;;;;;5000759;28;20065;-64
2023/04/02 05:40:05;;;;;;;0.20;0.20;;;3.70;99.90;;;;;;5006771;28;20034;-64
2023/04/02 05:42:34;;;;;;;;;;;3.70;99.90;;;;;;5012751;28;20405;-65
2023/04/02 05:45:24;;;;;;;0.10;0.10;;;3.70;99.90;;;;;;5018970;28;19926;-64
2023/04/02 05:47:56;;;;;;;4.45;1.42;;;3.70;99.90;;;;;;5004136;28;20077;-64
2023/04/02 05:50:21;;;;;;;0.93;0.90;;;3.70;99.90;;;;;;4997957;28;20049;-64
2023/04/02 05:53:19;;;;;;;0.10;0.10;;;3.70;99.90;;;;;;5012120;28;20056;-64
2023/04/02 05:56:22;;;;;;;0.10;0.10;;;3.70;99.90;;;;;;5000928;28;20081;-65
2023/04/02 05:59:15;;;;;;;0.10;0.10;;;3.80;99.90;;;;;;4988942;28;20093;-64
2023/04/02 06:01:54;;;;;;;0.10;0.10;;;3.80;99.90;;;;;;4994398;28;20038;-64
2023/04/02 06:04:26;;;;;;;0.10;0.10;;;3.80;99.90;;;;;;4992668;28;20089;-64
2023/04/02 06:07:22;;;;;;;0.10;0.10;;;3.90;99.90;;;;;;5012249;28;20060;-64
2023/04/02 06:09:56;;;;;;;0.10;0.10;;;3.90;99.90;;;;;;5005467;28;20104;-64
2023/04/02 06:12:45;;;;;;;2.30;1.13;;;4.00;99.90;;;;;;5002546;28;20068;-64
2023/04/02 06:15:13;;;;;;;0.10;0.10;;;4.10;99.90;;;;;;4998729;28;20035;-64
2023/04/02 06:18:09;;;;;;;0.10;0.10;;;4.00;99.90;;;;;;5010807;28;20065;-65
2023/04/02 06:20:35;;;;;;;0.10;0.10;;;4.10;99.90;;;;;;4993383;28;20070;-65
2023/04/02 06:23:32;;;;;;;0.10;0.10;;;4.10;99.90;;;;;;5010795;28;20046;-65
2023/04/02 06:26:06;;;;;;;0.15;0.15;;;4.10;99.90;;;;;;4991145;28;20133;-65
2023/04/02 06:29:01;;;;;;;0.10;0.10;;;4.20;99.90;;;;;;5001862;28;20045;-65
2023/04/02 06:31:35;;;;;;;0.10;0.10;;;4.20;99.90;;;;;;5007993;28;20140;-64
2023/04/02 06:34:03;;;;;;;0.10;0.10;;;4.30;99.90;;;;;;5011497;28;20048;-64
2023/04/02 06:36:30;;;;;;;0.10;0.10;;;4.40;99.90;;;;;;5005318;28;20042;-65
2023/04/02 06:39:03;;;;;;;0.10;0.10;;;4.40;99.90;;;;;;5001886;28;20052;-65
2023/04/02 06:41:29;;;;;;;0.10;0.10;;;4.40;99.90;;;;;;5011243;28;20422;-64
2023/04/02 06:44:17;;;;;;;0.10;0.10;;;4.40;99.90;;;;;;5009717;28;20109;-65
2023/04/02 06:46:47;;;;;;;0.10;0.10;;;4.50;99.90;;;;;;5010322;28;20050;-65
2023/04/02 06:49:19;;;;;;;0.90;0.90;;;4.50;99.90;;;;;;5010023;28;20539;-65
2023/04/02 06:51:47;;;;;;;0.10;0.10;;;4.60;99.90;;;;;;5001453;28;20509;-65
2023/04/02 06:54:17;;;;;;;0.10;0.10;;;4.60;99.90;;;;;;5009350;28;20049;-65
2023/04/02 06:56:48;;;;;;;0.10;0.10;;;4.70;99.90;;;;;;5008417;28;20145;-65
2023/04/02 06:59:15;;;;;;;0.20;0.20;;;4.70;99.90;;;;;;5001139;28;20046;-65
2023/04/02 07:02:11;;;;;;;0.10;0.10;;;4.70;99.90;;;;;;5011941;28;20132;-65
2023/04/02 07:04:37;;;;;;;0.10;0.10;;;4.80;99.90;;;;;;5008362;28;20104;-65
2023/04/02 07:07:02;;;;;;;0.10;0.10;;;4.80;99.90;;;;;;5002232;28;20058;-65
2023/04/02 07:09:28;;;;;;;0.20;0.20;;;4.90;99.90;;;;;;5025725;28;20481;-65
2023/04/02 07:11:54;;;;;;;0.10;0.10;;;4.90;99.90;;;;;;5010570;28;20039;-65
2023/04/02 07:14:20;;;;;;;0.10;0.10;;;5.00;99.90;;;;;;4999242;28;20113;-65
2023/04/02 07:16:45;;;;;;;0.10;0.10;;;5.00;99.90;;;;;;5023970;28;20060;-65
2023/04/02 07:19:18;;;;;;;0.30;0.30;;;5.10;99.90;;;;;;5015460;28;20046;-65
2023/04/02 07:21:43;;;;;;;0.10;0.10;;;5.10;99.90;;;;;;4999252;28;20113;-65
2023/04/02 07:24:09;;;;;;;0.55;0.55;;;5.20;99.90;;;;;;5005807;28;20545;-65
2023/04/02 07:26:35;;;;;;;0.10;0.10;;;5.20;99.90;;;;;;5008804;28;20041;-65
2023/04/02 07:29:00;;;;;;;0.10;0.10;;;5.20;99.90;;;;;;5004204;28;20065;-65
2023/04/02 07:31:27;;;;;;;0.10;0.10;;;5.30;99.90;;;;;;5008644;28;20517;-65
2023/04/02 07:33:58;;;;;;;0.10;0.10;;;5.40;99.90;;;;;;5003937;28;20046;-65
2023/04/02 07:36:25;;;;;;;0.10;0.10;;;5.50;99.90;;;;;;5004103;28;20077;-65
2023/04/02 07:38:51;;;;;;;0.10;0.10;;;5.60;99.90;;;;;;5009027;28;20050;-65
2023/04/02 07:41:18;;;;;;;0.10;0.10;;;5.60;99.90;;;;;;5004910;28;20057;-65
2023/04/02 07:43:44;;;;;;;0.20;0.20;;;5.70;99.90;;;;;;4998700;28;20078;-65
2023/04/02 07:46:10;;;;;;;0.10;0.10;;;5.70;99.90;;;;;;5007296;28;20092;-65
2023/04/02 07:48:36;;;;;;;0.10;0.10;;;5.60;99.90;;;;;;5005337;28;20046;-65
2023/04/02 07:51:02;;;;;;;1.25;1.20;;;5.70;99.90;;;;;;4999587;28;20092;-65
2023/04/02 07:53:29;;;;;;;0.10;0.10;;;5.80;99.90;;;;;;5003497;28;20073;-65
2023/04/02 07:55:56;;;;;;;0.85;0.85;;;5.80;99.90;;;;;;5009566;28;20061;-65
2023/04/02 07:58:21;;;;;;;0.10;0.10;;;6.00;99.90;;;;;;5009547;28;20122;-65
2023/04/02 08:00:47;;;;;;;0.17;0.17;;;6.00;99.90;;;;;;5002684;28;20113;-65
2023/04/02 08:03:13;;;;;;;0.10;0.10;;;6.10;99.90;;;;;;4999972;28;20042;-65
2023/04/02 08:05:38;;;;;;;0.10;0.10;;;6.20;99.90;;;;;;5005960;28;20045;-65
2023/04/02 08:08:04;;;;;;;1.13;1.13;;;6.30;99.90;;;;;;5008838;28;20057;-65
2023/04/02 08:10:30;;;;;;;0.10;0.10;;;6.40;99.90;;;;;;5004029;28;20038;-65
2023/04/02 08:12:56;;;;;;;0.30;0.30;;;6.50;99.90;;;;;;5004429;28;20107;-65
2023/04/02 08:15:21;;;;;;;0.10;0.10;;;6.60;99.90;;;;;;5000001;28;20038;-65
2023/04/02 08:17:47;;;;;;;0.10;0.10;;;6.70;99.90;;;;;;4995210;28;20137;-65
2023/04/02 08:20:21;;;;;;;0.32;0.32;;;7.10;99.90;;;;;;5006875;28;20038;-65
2023/04/02 08:22:47;;;;;;;0.10;0.10;;;7.80;99.90;;;;;;5003990;28;20034;-66
2023/04/02 08:25:13;;;;;;;0.10;0.10;;;8.80;99.90;;;;;;5001156;28;20171;-65
2023/04/02 08:27:39;;;;;;;0.10;0.10;;;9.10;99.90;;;;;;5003365;28;20125;-66
2023/04/02 08:30:06;;;;;;;0.10;0.10;;;9.70;99.90;;;;;;4999672;28;20107;-66
2023/04/02 08:32:32;;;;;;;0.10;0.10;;;10.10;99.90;;;;;;5007261;28;20058;-66
2023/04/02 08:34:58;;;;;;;0.10;0.10;;;10.80;99.90;;;;;;5007587;28;20049;-65
2023/04/02 08:37:24;;;;;;;0.10;0.10;;;10.90;99.90;;;;;;5006871;28;20049;-66
2023/04/02 08:39:49;;;;;;;0.10;0.10;;;11.10;99.90;;;;;;5003243;28;20034;-66
2023/04/02 08:42:21;;;;;;;0.00;0.00;;;11.30;99.90;;;;;;5013994;28;20081;-66
2023/04/02 08:45:05;;;;;;;0.10;0.10;;;11.90;99.90;;;;;;5007340;28;20406;-66
2023/04/02 08:47:38;;;;;;;0.10;0.10;;;11.70;99.90;;;;;;5008422;28;20054;-66
2023/04/02 08:50:34;;;;;;;0.10;0.10;;;12.00;99.90;;;;;;5008319;28;20143;-66
2023/04/02 08:53:04;;;;;;;1.38;0.52;;;12.10;99.90;;;;;;5008761;28;20133;-66
2023/04/02 08:55:58;;;;;;;0.03;0.03;;;12.60;99.90;;;;;;4997593;28;20100;-66
2023/04/02 08:58:42;;;;;;;1.05;1.00;;;12.70;99.90;;;;;;5008722;28;20107;-66
2023/04/02 09:01:26;;;;;;;1.75;0.80;;;12.80;99.90;;;;;;4999970;28;20054;-66
2023/04/02 09:03:54;;;;;;;;;;;12.40;99.90;;;;;;5003726;28;20056;-66
2023/04/02 09:06:21;;;;;;;0.10;0.10;;;12.40;99.90;;;;;;5015669;28;19921;-67
2023/04/02 09:08:49;;;;;;;0.10;0.10;;;12.40;99.90;;;;;;4995674;28;20054;-66
2023/04/02 09:11:22;;;;;;;0.10;0.10;;;12.60;99.90;;;;;;5001763;28;20077;-66
2023/04/02 09:13:57;;;;;;;0.10;0.10;;;12.90;99.20;;;;;;4995082;28;20049;-66
2023/04/02 09:16:39;;;;;;;0.10;0.10;;;13.10;98.90;;;;;;4996603;28;20085;-66
2023/04/02 09:19:34;;;;;;;1.08;1.00;;;12.60;98.90;;;;;;5001906;28;20046;-66
2023/04/02 09:22:18;;;;;;;0.40;0.40;;;13.20;99.00;;;;;;5007942;28;20054;-66
2023/04/02 09:24:43;;;;;;;0.65;0.65;;;13.20;97.70;;;;;;4999670;28;20046;-66
2023/04/02 09:27:18;;;;;;;0.10;0.10;;;13.30;98.20;;;;;;5002028;28;20053;-66
2023/04/02 09:29:46;;;;;;;3.75;0.95;;;13.00;98.50;;;;;;4998685;28;20110;-66
2023/04/02 09:32:47;;;;;;;0.00;0.00;;;13.40;98.90;;;;;;5005597;28;20433;-66
2023/04/02 09:35:19;;;;;;;0.10;0.10;;;13.20;97.60;;;;;;5008527;28;20050;-66
2023/04/02 09:37:46;;;;;;;0.00;0.00;;;13.60;99.00;;;;;;5006158;28;20445;-66
2023/04/02 09:40:16;;;;;;;0.47;0.45;;;13.80;98.20;;;;;;4998242;28;20057;-66
2023/04/02 09:42:42;;;;;;;0.00;0.00;;;14.00;97.40;;;;;;4997853;28;20053;-66
2023/04/02 09:45:20;;;;;;;0.80;0.75;;;13.80;98.40;;;;;;4999970;28;20034;-66
2023/04/02 09:47:46;;;;;;;0.00;0.00;;;13.50;97.30;;;;;;5002443;28;20539;-66
2023/04/02 09:50:20;;;;;;;0.52;0.52;;;13.70;97.70;;;;;;5012336;28;20124;-66
2023/04/02 09:52:46;;;;;;;0.00;0.00;;;13.90;97.70;;;;;;5006280;28;20494;-66
2023/04/02 09:55:26;;;;;;;0.10;0.10;;;14.00;97.50;;;;;;5007894;28;20103;-66
2023/04/02 09:58:13;;;;;;;0.25;0.25;;;14.20;97.70;;;;;;4999954;28;20062;-66
2023/04/02 10:00:47;;;;;;;0.60;0.60;;;14.30;97.60;;;;;;5009714;28;20052;-66
2023/04/02 10:03:24;;;;;;;0.10;0.10;;;14.00;97.20;;;;;;5017130;28;20050;-66
2023/04/02 10:06:11;;;;;;;0.10;0.10;;;14.10;97.70;;;;;;5003013;28;20048;-66
2023/04/02 10:08:39;;;;;;;0.30;0.30;;;14.40;96.90;;;;;;5025583;28;20060;-66
2023/04/02 10:11:34;;;;;;;0.55;0.35;;;14.40;97.10;;;;;;5000018;28;20048;-66
2023/04/02 10:14:04;;;;;;;0.00;0.00;;;14.40;98.50;;;;;;5005532;28;20050;-66
2023/04/02 10:16:39;;;;;;;0.00;0.00;;;14.30;96.70;;;;;;5015634;28;20123;-66
2023/04/02 10:19:17;;;;;;;0.30;0.30;;;14.10;96.80;;;;;;5003960;28;20065;-66
2023/04/02 10:21:44;;;;;;;0.00;0.00;;;13.40;97.90;;;;;;5013193;28;20050;-66
2023/04/02 10:24:15;;;;;;;0.00;0.00;;;13.30;98.30;;;;;;5001953;28;20070;-66
2023/04/02 10:27:05;;;;;;;0.05;0.05;;;13.00;98.30;;;;;;4999960;28;20085;-66
2023/04/02 10:29:40;;;;;;;0.05;0.05;;;12.90;99.20;;;;;;5009754;28;20441;-66
2023/04/02 10:32:07;;;;;;;0.10;0.10;;;13.10;99.00;;;;;;4999164;28;20039;-66
2023/04/02 10:34:49;;;;;;;0.00;0.00;;;13.00;99.50;;;;;;5009342;28;20038;-66
2023/04/02 10:37:17;;;;;;;0.43;0.43;;;12.80;99.40;;;;;;5012310;28;20054;-66
2023/04/02 10:39:50;;;;;;;0.00;0.00;;;12.80;99.80;;;;;;5002979;28;20429;-66
2023/04/02 10:42:27;;;;;;;0.00;0.00;;;12.80;99.90;;;;;;5004799;28;20057;-66
2023/04/02 10:45:11;;;;;;;0.00;0.00;;;12.70;99.80;;;;;;5001227;28;20054;-66
2023/04/02 10:47:39;;;;;;;;;;;12.80;99.90;;;;;;5004111;28;20064;-65
2023/04/02 10:50:05;;;;;;;0.15;0.15;;;12.80;99.90;;;;;;4998218;28;19993;-66
2023/04/02 10:53:18;;;;;;;0.15;0.15;;;12.90;99.90;;;;;;5008331;28;20057;-66
2023/04/02 10:56:07;;;;;;;0.10;0.10;;;13.00;99.90;;;;;;5005564;28;20500;-66
2023/04/02 10:58:41;;;;;;;0.20;0.20;;;12.80;99.20;;;;;;4995308;28;20050;-66
2023/04/02 11:01:15;;;;;;;0.10;0.10;;;12.90;98.80;;;;;;5003728;28;20050;-67
2023/04/02 11:03:43;;;;;;;0.00;0.00;;;12.90;99.90;;;;;;5021085;28;20034;-66
2023/04/02 11:06:24;;;;;;;0.00;0.00;;;13.10;99.90;;;;;;5012873;28;20050;-66
2023/04/02 11:08:54;;;;;;;0.20;0.20;;;13.40;99.90;;;;;;5000437;28;20528;-66
2023/04/02 11:11:30;;;;;;;1.45;0.75;;;13.40;99.40;;;;;;5005927;28;20508;-66
2023/04/02 11:14:04;;;;;;;1.00;0.55;;;13.20;99.20;;;;;;5000636;28;20143;-66
2023/04/02 11:16:30;;;;;;;0.00;0.00;;;13.30;99.10;;;;;;5005657;28;20046;-67
2023/04/02 11:19:14;;;;;;;0.10;0.10;;;13.30;98.50;;;;;;5000563;28;20046;-66
2023/04/02 11:21:50;;;;;;;0.00;0.00;;;13.50;99.60;;;;;;5000365;28;20124;-66
2023/04/02 11:24:23;;;;;;;0.10;0.10;;;13.50;99.90;;;;;;5003340;28;20547;-66
2023/04/02 11:26:49;;;;;;;0.00;0.00;;;13.70;99.20;;;;;;5004793;28;20073;-66
2023/04/02 11:29:20;;;;;;;0.00;0.00;;;13.80;99.50;;;;;;5011161;28;20058;-66
2023/04/02 11:31:47;;;;;;;0.10;0.10;;;14.00;99.10;;;;;;5010559;28;20437;-66
2023/04/02 11:34:34;;;;;;;0.10;0.10;;;14.00;99.60;;;;;;5004879;28;20049;-66
2023/04/02 11:37:02;;;;;;;0.10;0.10;;;14.00;99.90;;;;;;4988748;28;20046;-66
2023/04/02 11:39:55;;;;;;;0.57;0.57;;;14.30;99.70;;;;;;5013507;28;20431;-66
2023/04/02 11:42:35;;;;;;;3.65;1.05;;;14.20;97.80;;;;;;5002291;28;20042;-66
2023/04/02 11:45:27;;;;;;;0.10;0.10;;;14.40;98.20;;;;;;5004772;28;20082;-66
2023/04/02 11:47:58;;;;;;;1.45;1.20;;;14.70;99.10;;;;;;4997383;28;20092;-66
2023/04/02 11:50:37;;;;;;;0.00;0.00;;;14.70;97.40;;;;;;4998696;28;20057;-66
2023/04/02 11:53:13;;;;;;;0.10;0.10;;;14.80;98.50;;;;;;5001179;28;20029;-66
2023/04/02 11:56:00;;;;;;;0.08;0.08;;;14.70;97.30;;;;;;5003103;28;20045;-66
2023/04/02 11:59:01;;;;;;;0.05;0.05;;;14.60;98.60;;;;;;5011390;28;20135;-66
2023/04/02 12:01:48;;;;;;;0.00;0.00;;;14.70;97.50;;;;;;5010664;28;20054;-66
2023/04/02 12:04:42;;;;;;;0.08;0.08;;;14.50;97.30;;;;;;4995890;28;20375;-66
2023/04/02 12:07:26;;;;;;;0.13;0.13;;;14.60;98.10;;;;;;5002730;28;20050;-67
2023/04/02 12:10:30;;;;;;;0.00;0.00;;;15.00;96.60;;;;;;5010118;28;20057;-67
2023/04/02 12:12:56;;;;;;;1.02;0.90;;;14.70;96.30;;;;;;5003038;28;20456;-66
2023/04/02 12:15:44;;;;;;;0.03;0.03;;;14.90;97.30;;;;;;4994380;28;20038;-67
2023/04/02 12:18:22;;;;;;;0.32;0.32;;;15.00;97.90;;;;;;5006621;28;20057;-67
2023/04/02 12:20:50;;;;;;;0.00;0.00;;;15.00;98.10;;;;;;4997242;28;20082;-67
2023/04/02 12:23:22;;;;;;;0.15;0.15;;;15.30;98.00;;;;;;5006256;28;20076;-67
2023/04/02 12:26:21;;;;;;;0.10;0.10;;;15.60;98.90;;;;;;5015957;28;20449;-66
2023/04/02 12:28:46;;;;;;;0.00;0.00;;;15.60;96.80;;;;;;5003448;28;20064;-67
2023/04/02 12:31:17;;;;;;;0.03;0.03;;;15.40;96.90;;;;;;5002692;28;20394;-66
2023/04/02 12:33:44;;;;;;;0.00;0.00;;;15.50;96.80;;;;;;5002217;28;20046;-66
2023/04/02 12:36:13;;;;;;;0.00;0.00;;;15.70;96.30;;;;;;5010002;28;20046;-66
2023/04/02 12:39:14;;;;;;;6.30;2.20;;;15.60;96.00;;;;;;5002208;28;20065;-67
2023/04/02 12:41:40;;;;;;;0.00;0.00;;;15.70;97.50;;;;;;5002039;28;20042;-66
2023/04/02 12:44:15;;;;;;;0.00;0.00;;;15.90;95.50;;;;;;5009859;28;20088;-66
2023/04/02 12:46:41;;;;;;;0.10;0.10;;;15.80;97.20;;;;;;5006297;28;20100;-66
2023/04/02 12:49:38;;;;;;;0.00;0.00;;;15.90;97.40;;;;;;4991441;28;20038;-67
2023/04/02 12:52:11;;;;;;;0.00;0.00;;;15.60;96.50;;;;;;5003683;28;21310;-66
2023/04/02 12:54:51;;;;;;;0.52;0.52;;;16.00;97.20;;;;;;5006999;28;20045;-67
2023/04/02 12:57:23;;;;;;;0.08;0.08;;;16.30;96.60;;;;;;5009147;28;20485;-67
2023/04/02 12:59:49;;;;;;;0.10;0.10;;;16.50;95.70;;;;;;4999025;28;20506;-68
2023/04/02 13:02:26;;;;;;;0.10;0.10;;;16.30;95.40;;;;;;5001723;28;20049;-66
2023/04/02 13:05:00;;;;;;;0.10;0.10;;;16.40;96.30;;;;;;5022325;28;20482;-67
2023/04/02 13:07:29;;;;;;;0.00;0.00;;;16.40;94.90;;;;;;5006797;28;20710;-67
2023/04/02 13:09:58;;;;;;;0.10;0.10;;;16.20;95.30;;;;;;4997305;28;20057;-67
2023/04/02 13:12:39;;;;;;;0.03;0.03;;;16.10;94.90;;;;;;5029152;28;20490;-67
2023/04/02 13:15:07;;;;;;;0.20;0.20;;;16.50;95.90;;;;;;5009166;28;20572;-67
2023/04/02 13:17:47;;;;;;;0.00;0.00;;;16.60;95.20;;;;;;4993931;28;20079;-67
2023/04/02 13:20:36;;;;;;;0.00;0.00;;;16.70;96.50;;;;;;5004474;28;20100;-67
2023/04/02 13:23:28;;;;;;;0.35;0.35;;;17.00;95.50;;;;;;5012318;28;20374;-67
2023/04/02 13:25:54;;;;;;;0.10;0.10;;;16.90;93.90;;;;;;5010403;28;20041;-67
2023/04/02 13:28:20;;;;;;;0.00;0.00;;;16.60;95.00;;;;;;5002609;28;20053;-67
2023/04/02 13:30:46;;;;;;;0.00;0.00;;;16.70;94.10;;;;;;5009843;28;23568;-67
2023/04/02 13:33:13;;;;;;;0.00;0.00;;;16.80;94.60;;;;;;5002469;28;20050;-67
2023/04/02 13:35:39;;;;;;;0.00;0.00;;;16.60;94.60;;;;;;5002257;28;20105;-67
2023/04/02 13:38:05;;;;;;;0.00;0.00;;;16.50;95.10;;;;;;5011610;28;20037;-67